createdAt,value
2023-04-07T08:56:51.145Z,100128.56
2023-04-07T08:58:55.746Z,100128.56
2023-04-07T09:00:58.845Z,100068.94
2023-04-07T09:03:03.671Z,100075.06
2023-04-07T09:05:08.670Z,100081.63
2023-04-07T09:07:11.140Z,100103.09
2023-04-07T09:09:14.957Z,100105.00
2023-04-07T09:11:18.178Z,100085.22
2023-04-07T09:13:20.861Z,100085.19
2023-04-07T09:15:24.016Z,100064.50
2023-04-07T09:17:28.299Z,100031.66
2023-04-07T09:19:31.048Z,100035.81
2023-04-07T09:21:53.594Z,100040.09
2023-04-07T09:23:56.302Z,100045.22
2023-04-07T09:26:00.286Z,100061.63
2023-04-07T09:28:04.747Z,100079.34
2023-04-07T09:30:15.825Z,100102.19
2023-04-07T09:32:41.464Z,100102.78
2023-04-07T09:34:43.910Z,100123.22
2023-04-07T09:36:46.824Z,100156.41
2023-04-07T09:38:49.157Z,100167.09
2023-04-07T09:40:51.531Z,100203.16
2023-04-07T09:42:54.720Z,100237.75
2023-04-07T09:44:57.040Z,100232.22
2023-04-07T09:46:59.597Z,100252.44
2023-04-07T09:49:07.289Z,100207.94
2023-04-07T09:51:14.881Z,100227.03
2023-04-07T09:53:18.229Z,100222.34
2023-04-07T09:55:22.732Z,100203.91
2023-04-07T09:57:25.462Z,100218.53
2023-04-07T09:59:29.128Z,100215.72
2023-04-07T10:01:31.862Z,100210.16
2023-04-07T10:03:34.910Z,100236.75
2023-04-07T10:05:37.449Z,100241.03
2023-04-07T10:07:42.621Z,100241.25
2023-04-07T10:09:45.502Z,100243.91
2023-04-07T10:11:50.225Z,100218.19
2023-04-07T10:13:52.597Z,100239.50
2023-04-07T10:15:56.365Z,100243.22
2023-04-07T10:17:59.954Z,100236.84
2023-04-07T10:20:05.144Z,100231.25
2023-04-07T10:22:08.087Z,100276.78
2023-04-07T10:24:33.726Z,100256.50
2023-04-07T10:26:39.981Z,100246.56
2023-04-07T10:28:46.202Z,100227.66
2023-04-07T10:30:49.432Z,100214.63
2023-04-07T10:32:53.728Z,100221.72
2023-04-07T10:34:58.179Z,100235.19
2023-04-07T10:37:17.875Z,100224.75
2023-04-07T10:39:21.330Z,100225.00
2023-04-07T10:41:36.646Z,100241.72
2023-04-07T10:43:44.289Z,100245.50
2023-04-07T10:45:52.365Z,100253.28
2023-04-07T10:47:58.106Z,100282.34
2023-04-07T10:50:20.682Z,100299.97
2023-04-07T10:52:24.178Z,100307.53
2023-04-07T10:54:29.208Z,100315.84
2023-04-07T10:57:04.947Z,100315.75
2023-04-07T10:59:16.921Z,100315.13
2023-04-07T11:01:20.405Z,100303.25
2023-04-07T11:03:24.373Z,100294.94
2023-04-07T11:05:26.904Z,100275.97
2023-04-07T11:07:50.305Z,100268.41
2023-04-07T11:10:09.327Z,100293.91
2023-04-07T11:12:25.028Z,100289.41
2023-04-07T11:14:29.083Z,100255.47
2023-04-07T11:16:41.838Z,100283.75
2023-04-07T11:18:45.390Z,100290.38
2023-04-07T11:20:51.705Z,100312.50
2023-04-07T11:23:00.256Z,100341.56
2023-04-07T11:25:02.696Z,100348.03
2023-04-07T11:27:06.601Z,100318.37
2023-04-07T11:29:09.134Z,100321.34
2023-04-07T11:31:11.842Z,100309.97
2023-04-07T11:33:34.936Z,100307.84
2023-04-07T11:35:37.271Z,100327.47
2023-04-07T11:37:39.589Z,100342.69
2023-04-07T11:39:42.683Z,100348.47
2023-04-07T11:41:50.048Z,100328.87
2023-04-07T11:44:09.982Z,100329.66
2023-04-07T11:46:14.854Z,100320.16
2023-04-07T11:48:27.958Z,100337.97
2023-04-07T11:50:41.359Z,100337.78
2023-04-07T11:52:45.592Z,100349.56
2023-04-07T11:54:48.133Z,100346.94
2023-04-07T11:56:51.882Z,100354.22
2023-04-07T11:58:55.648Z,100347.38
2023-04-07T12:01:03.498Z,100364.44
2023-04-07T12:03:16.349Z,100357.47
2023-04-07T12:05:19.096Z,100341.13
2023-04-07T12:07:21.427Z,100325.56
2023-04-07T12:09:31.243Z,100335.72
2023-04-07T12:11:34.681Z,100338.19
2023-04-07T12:13:37.918Z,100328.34
2023-04-07T12:15:40.561Z,100305.06
2023-04-07T12:17:47.707Z,100283.16
2023-04-07T12:19:50.477Z,100270.56
2023-04-07T12:21:53.208Z,100260.56
2023-04-07T12:23:55.518Z,100275.38
2023-04-07T12:25:57.879Z,100269.28
2023-04-07T12:28:00.510Z,100257.06
2023-04-07T12:30:02.859Z,100249.94
2023-04-07T12:32:05.500Z,100225.34
2023-04-07T12:34:08.170Z,100222.47
2023-04-07T12:36:10.781Z,100217.53
2023-04-07T12:38:13.733Z,100227.47
2023-04-07T12:40:17.899Z,100226.00
2023-04-07T12:42:20.504Z,100233.25
2023-04-07T12:44:22.916Z,100227.75
2023-04-07T12:46:25.655Z,100221.47
2023-04-07T12:48:28.041Z,100213.41
2023-04-07T12:50:30.579Z,100233.16
2023-04-07T12:52:33.349Z,100244.34
2023-04-07T12:54:35.838Z,100269.31
2023-04-07T12:56:38.287Z,100279.66
2023-04-07T12:58:40.963Z,100281.78
2023-04-07T13:00:43.311Z,100259.19
2023-04-07T13:02:46.036Z,100264.75
2023-04-07T13:04:48.719Z,100259.06
2023-04-07T13:06:51.428Z,100262.97
2023-04-07T13:08:54.011Z,100263.09
2023-04-07T13:10:57.268Z,100273.50
2023-04-07T13:12:59.783Z,100274.34
2023-04-07T13:15:03.174Z,100277.53
2023-04-07T13:17:06.948Z,100274.22
2023-04-07T13:19:09.586Z,100280.69
2023-04-07T13:21:42.906Z,100278.56
2023-04-07T13:23:42.611Z,100280.69
2023-04-07T13:25:45.774Z,100271.94
2023-04-07T13:27:48.324Z,100261.91
2023-04-07T13:29:51.004Z,100251.03
2023-04-07T13:31:53.307Z,100247.91
2023-04-07T13:33:55.649Z,100258.50
2023-04-07T13:35:58.335Z,100269.16
2023-04-07T13:38:00.805Z,100277.75
2023-04-07T13:40:03.291Z,100270.50
2023-04-07T13:42:07.008Z,100269.41
2023-04-07T13:44:09.399Z,100269.28
2023-04-07T13:46:27.964Z,100264.69
2023-04-07T13:48:31.744Z,100269.34
2023-04-07T13:50:37.023Z,100272.59
2023-04-07T13:52:39.399Z,100280.00
2023-04-07T13:54:42.423Z,100268.28
2023-04-07T13:56:44.803Z,100273.06
2023-04-07T13:58:48.029Z,100281.66
2023-04-07T14:00:50.644Z,100283.28
2023-04-07T14:02:53.404Z,100281.72
2023-04-07T14:04:56.141Z,100278.56
2023-04-07T14:06:58.424Z,100274.84
2023-04-07T14:09:01.203Z,100258.16
2023-04-07T14:11:03.766Z,100248.84
2023-04-07T14:13:06.970Z,100244.78
2023-04-07T14:15:09.973Z,100243.87
2023-04-07T14:17:12.306Z,100243.97
2023-04-07T14:19:14.604Z,100240.16
2023-04-07T14:21:17.642Z,100243.13
2023-04-07T14:23:30.257Z,100254.09
2023-04-07T14:25:38.825Z,100260.50
2023-04-07T14:27:41.518Z,100269.34
2023-04-07T14:29:43.829Z,100283.75
2023-04-07T14:31:48.630Z,100281.56
2023-04-07T14:33:51.524Z,100281.06
2023-04-07T14:35:54.121Z,100269.44
2023-04-07T14:37:56.733Z,100267.63
2023-04-07T14:40:03.130Z,100270.69
2023-04-07T14:42:05.713Z,100271.44
2023-04-07T14:44:07.923Z,100283.16
2023-04-07T14:46:12.253Z,100284.16
2023-04-07T14:48:14.751Z,100288.44
2023-04-07T14:50:17.423Z,100285.16
2023-04-07T14:52:21.947Z,100290.50
2023-04-07T14:54:24.516Z,100285.00
2023-04-07T14:56:27.378Z,100281.63
2023-04-07T14:58:30.059Z,100279.75
2023-04-07T15:00:32.593Z,100264.56
2023-04-07T15:02:36.608Z,100260.28
2023-04-07T15:04:39.637Z,100252.22
2023-04-07T15:06:47.306Z,100250.19
2023-04-07T15:08:49.739Z,100242.38
2023-04-07T15:10:52.411Z,100237.25
2023-04-07T15:12:54.730Z,100216.28
2023-04-07T15:14:57.655Z,100227.34
2023-04-07T15:17:00.245Z,100235.78
2023-04-07T15:19:03.120Z,100235.25
2023-04-07T15:21:06.085Z,100239.72
2023-04-07T15:23:08.730Z,100238.25
2023-04-07T15:25:11.159Z,100232.59
2023-04-07T15:27:13.498Z,100241.06
2023-04-07T15:29:16.081Z,100230.78
2023-04-07T15:31:18.528Z,100229.12
2023-04-07T15:33:20.901Z,100229.03
2023-04-07T15:35:23.514Z,100242.78
2023-04-07T15:37:26.452Z,100249.69
2023-04-07T15:39:28.765Z,100246.38
2023-04-07T15:41:31.694Z,100263.28
2023-04-07T15:43:34.613Z,100264.97
2023-04-07T15:45:44.551Z,100262.69
2023-04-07T15:47:50.040Z,100250.72
2023-04-07T15:49:52.556Z,100234.31
2023-04-07T15:51:56.149Z,100222.22
2023-04-07T15:54:00.070Z,100199.09
2023-04-07T15:56:02.488Z,100192.19
2023-04-07T15:58:05.289Z,100190.84
2023-04-07T16:00:09.175Z,100196.81
2023-04-07T16:02:14.028Z,100209.75
2023-04-07T16:04:17.050Z,100216.81
2023-04-07T16:06:19.695Z,100221.00
2023-04-07T16:08:22.422Z,100230.19
2023-04-07T16:10:24.819Z,100229.16
2023-04-07T16:12:27.238Z,100237.66
2023-04-07T16:14:31.311Z,100235.66
2023-04-07T16:16:36.069Z,100244.31
2023-04-07T16:18:38.463Z,100245.25
2023-04-07T16:20:41.372Z,100241.19
2023-04-07T16:22:46.579Z,100234.59
2023-04-07T16:24:48.942Z,100237.84
2023-04-07T16:26:52.513Z,100235.44
2023-04-07T16:28:54.976Z,100224.00
2023-04-07T16:30:57.299Z,100215.56
2023-04-07T16:33:00.666Z,100200.94
2023-04-07T16:35:03.837Z,100196.75
2023-04-07T16:37:06.375Z,100199.44
2023-04-07T16:39:08.945Z,100183.56
2023-04-07T16:41:11.432Z,100167.78
2023-04-07T16:43:13.923Z,100154.19
2023-04-07T16:45:16.509Z,100149.94
2023-04-07T16:47:18.816Z,100141.41
2023-04-07T16:49:21.235Z,100148.41
2023-04-07T16:51:24.878Z,100141.47
2023-04-07T16:53:27.299Z,100145.94
2023-04-07T16:55:29.683Z,100146.75
2023-04-07T16:57:32.434Z,100149.00
2023-04-07T16:59:35.559Z,100148.59
2023-04-07T17:01:42.004Z,100139.63
2023-04-07T17:03:48.660Z,100152.41
2023-04-07T17:05:51.519Z,100151.41
2023-04-07T17:07:56.076Z,100155.13
2023-04-07T17:09:59.913Z,100160.59
2023-04-07T17:12:03.199Z,100146.22
2023-04-07T17:14:05.965Z,100142.66
2023-04-07T17:16:13.872Z,100137.03
2023-04-07T17:18:16.349Z,100142.81
2023-04-07T17:20:18.773Z,100152.63
2023-04-07T17:22:21.461Z,100147.69
2023-04-07T17:24:23.922Z,100142.75
2023-04-07T17:26:26.553Z,100150.69
2023-04-07T17:28:30.263Z,100139.53
2023-04-07T17:30:33.118Z,100134.16
2023-04-07T17:32:35.513Z,100131.84
2023-04-07T17:34:38.206Z,100126.44
2023-04-07T17:36:41.399Z,100114.53
2023-04-07T17:38:45.320Z,100090.16
2023-04-07T17:40:47.980Z,100066.66
2023-04-07T17:42:50.255Z,100074.63
2023-04-07T17:44:53.869Z,100088.69
2023-04-07T17:46:56.824Z,100092.16
2023-04-07T17:48:59.441Z,100076.00
2023-04-07T17:51:01.847Z,100066.19
2023-04-07T17:53:04.658Z,100060.69
2023-04-07T17:55:08.163Z,100048.75
2023-04-07T17:57:11.516Z,100037.66
2023-04-07T17:59:14.194Z,100028.03
2023-04-07T18:01:17.075Z,100041.84
2023-04-07T18:03:19.799Z,100056.69
2023-04-07T18:05:22.649Z,100048.31
2023-04-07T18:07:24.935Z,100019.78
2023-04-07T18:09:27.751Z,100022.91
2023-04-07T18:11:30.114Z,100043.72
2023-04-07T18:13:32.856Z,100051.28
2023-04-07T18:15:35.755Z,100057.16
2023-04-07T18:17:38.316Z,100062.09
2023-04-07T18:19:40.684Z,100056.50
2023-04-07T18:21:43.709Z,100045.72
2023-04-07T18:23:46.536Z,100041.56
2023-04-07T18:25:49.480Z,100047.78
2023-04-07T18:27:52.360Z,100025.94
2023-04-07T18:29:55.934Z,100009.87
2023-04-07T18:31:58.306Z,99974.50
2023-04-07T18:34:00.930Z,99972.44
2023-04-07T18:36:08.178Z,99964.19
2023-04-07T18:38:10.613Z,99958.69
2023-04-07T18:40:13.651Z,99936.88
2023-04-07T18:42:16.173Z,99928.06
2023-04-07T18:44:18.566Z,99885.94
2023-04-07T18:46:21.683Z,99852.22
2023-04-07T18:48:24.395Z,99852.81
2023-04-07T18:50:26.690Z,99859.88
2023-04-07T18:52:29.365Z,99866.59
2023-04-07T18:54:31.948Z,99877.09
2023-04-07T18:56:34.758Z,99878.03
2023-04-07T18:58:43.854Z,99889.13
2023-04-07T19:00:49.503Z,99913.94
2023-04-07T19:02:52.050Z,99917.13
2023-04-07T19:04:54.787Z,99921.44
2023-04-07T19:06:57.666Z,99900.31
2023-04-07T19:09:00.179Z,99891.94
2023-04-07T19:11:02.893Z,99874.09
2023-04-07T19:13:05.479Z,99886.94
2023-04-07T19:15:08.270Z,99873.56
2023-04-07T19:17:11.878Z,99920.97
2023-04-07T19:19:14.394Z,99915.88
2023-04-07T19:21:17.533Z,99921.72
2023-04-07T19:23:20.139Z,99912.88
2023-04-07T19:25:23.108Z,99924.44
2023-04-07T19:27:25.847Z,99904.97
2023-04-07T19:29:28.592Z,99910.69
2023-04-07T19:31:31.497Z,99914.97
2023-04-07T19:33:34.827Z,99890.25
2023-04-07T19:35:39.211Z,99863.19
2023-04-07T19:37:41.808Z,99845.78
2023-04-07T19:39:55.704Z,99825.16
2023-04-07T19:42:05.178Z,99816.78
2023-04-07T19:44:07.616Z,99785.25
2023-04-07T19:46:10.046Z,99806.09
2023-04-07T19:48:12.774Z,99808.03
2023-04-07T19:50:15.182Z,99782.72
2023-04-07T19:52:17.556Z,99798.28
2023-04-07T19:54:20.280Z,99800.09
2023-04-07T19:56:23.146Z,99786.13
2023-04-07T19:58:25.563Z,99780.44
2023-04-07T20:00:30.649Z,99744.63
2023-04-07T20:02:35.477Z,99742.75
2023-04-07T20:04:37.822Z,99730.56
2023-04-07T20:06:40.763Z,99734.78
2023-04-07T20:08:43.787Z,99733.87
2023-04-07T20:10:46.393Z,99730.09
2023-04-07T20:12:48.725Z,99736.97
2023-04-07T20:14:51.689Z,99734.84
2023-04-07T20:16:54.238Z,99729.84
2023-04-07T20:18:56.535Z,99738.12
2023-04-07T20:21:05.791Z,99731.47
2023-04-07T20:23:08.169Z,99715.09
2023-04-07T20:25:10.648Z,99707.25
2023-04-07T20:27:13.330Z,99683.34
2023-04-07T20:29:15.808Z,99689.97
2023-04-07T20:31:19.289Z,99676.69
2023-04-07T20:33:22.326Z,99666.41
2023-04-07T20:35:24.726Z,99638.78
2023-04-07T20:37:27.868Z,99635.41
2023-04-07T20:39:30.901Z,99606.34
2023-04-07T20:41:33.285Z,99615.09
2023-04-07T20:43:35.803Z,99598.84
2023-04-07T20:45:38.992Z,99568.41
2023-04-07T20:47:41.658Z,99549.56
2023-04-07T20:49:44.058Z,99530.13
2023-04-07T20:51:47.206Z,99530.41
2023-04-07T20:53:49.542Z,99531.34
2023-04-07T20:55:52.425Z,99527.91
2023-04-07T20:57:55.147Z,99537.84
2023-04-07T20:59:57.599Z,99548.12
2023-04-07T21:02:00.004Z,99574.94
2023-04-07T21:04:02.858Z,99587.03
2023-04-07T21:06:05.778Z,99560.38
2023-04-07T21:08:08.161Z,99562.25
2023-04-07T21:10:10.929Z,99581.13
2023-04-07T21:12:14.252Z,99562.09
2023-04-07T21:14:16.633Z,99560.31
2023-04-07T21:16:19.351Z,99548.84
2023-04-07T21:18:21.888Z,99558.28
2023-04-07T21:20:24.194Z,99546.19
2023-04-07T21:22:28.114Z,99530.53
2023-04-07T21:24:32.054Z,99519.00
2023-04-07T21:26:34.337Z,99516.03
2023-04-07T21:28:37.203Z,99531.44
2023-04-07T21:30:42.644Z,99520.00
2023-04-07T21:32:45.573Z,99509.56
2023-04-07T21:34:52.139Z,99518.69
2023-04-07T21:36:54.432Z,99538.97
2023-04-07T21:38:57.190Z,99539.78
2023-04-07T21:40:59.826Z,99550.06
2023-04-07T21:43:02.093Z,99591.53
2023-04-07T21:45:04.816Z,99585.00
2023-04-07T21:47:07.429Z,99597.06
2023-04-07T21:49:09.944Z,99620.59
2023-04-07T21:51:12.341Z,99644.31
2023-04-07T21:53:14.899Z,99636.91
2023-04-07T21:55:18.893Z,99622.91
2023-04-07T21:57:21.212Z,99617.38
2023-04-07T21:59:23.814Z,99618.00
2023-04-07T22:01:27.196Z,99589.69
2023-04-07T22:03:30.682Z,99593.19
2023-04-07T22:05:34.012Z,99573.25
